createdAt,value
2019-03-16T00:00:44.462Z,8.22
2019-03-16T00:01:57.510Z,8.20
2019-03-16T00:03:02.276Z,8.25
2019-03-16T00:04:10.446Z,8.24
2019-03-16T00:05:18.833Z,8.20
2019-03-16T00:06:26.703Z,8.20
2019-03-16T00:07:34.509Z,8.26
2019-03-16T00:08:42.510Z,8.27
2019-03-16T00:09:50.659Z,8.23
2019-03-16T00:10:59.111Z,8.21
2019-03-16T00:12:07.125Z,8.19
2019-03-16T00:13:16.303Z,8.20
2019-03-16T00:14:24.456Z,8.21
2019-03-16T00:15:32.408Z,8.21
2019-03-16T00:16:40.724Z,8.20
2019-03-16T00:17:48.746Z,8.18
2019-03-16T00:18:56.568Z,8.18
2019-03-16T00:20:06.375Z,8.15
2019-03-16T00:21:14.520Z,8.27
2019-03-16T00:22:22.675Z,8.26
2019-03-16T00:23:30.704Z,8.19
2019-03-16T00:24:38.536Z,8.20
2019-03-16T00:25:46.348Z,8.23
2019-03-16T00:26:54.469Z,8.17
2019-03-16T00:28:02.466Z,8.11
2019-03-16T00:29:10.723Z,8.08
2019-03-16T00:30:18.769Z,8.07
2019-03-16T00:31:27.327Z,8.14
2019-03-16T00:32:35.675Z,8.15
2019-03-16T00:33:44.056Z,8.12
2019-03-16T00:34:52.052Z,8.09
2019-03-16T00:36:00.177Z,8.05
2019-03-16T00:37:08.196Z,8.11
2019-03-16T00:38:16.277Z,8.10
2019-03-16T00:39:24.257Z,8.11
2019-03-16T00:40:32.464Z,8.05
2019-03-16T00:41:40.552Z,8.04
2019-03-16T00:42:48.527Z,8.03
2019-03-16T00:43:56.495Z,8.04
2019-03-16T00:45:05.770Z,8.06
2019-03-16T00:46:13.697Z,8.08
2019-03-16T00:47:21.887Z,8.05
2019-03-16T00:48:29.984Z,8.03
2019-03-16T00:49:37.854Z,8.02
2019-03-16T00:50:45.778Z,8.02
2019-03-16T00:51:53.731Z,8.03
2019-03-16T00:53:01.922Z,8.02
2019-03-16T00:54:10.120Z,8.05
2019-03-16T00:55:18.020Z,8.03
2019-03-16T00:56:26.027Z,7.99
2019-03-16T00:57:34.004Z,8.02
2019-03-16T00:58:41.998Z,8.03
2019-03-16T00:59:49.943Z,8.02
2019-03-16T01:01:01.839Z,8.01
2019-03-16T01:02:09.785Z,8.02
2019-03-16T01:03:17.892Z,7.99
2019-03-16T01:04:26.067Z,8.00
2019-03-16T01:05:34.323Z,7.98
2019-03-16T01:06:42.576Z,7.99
2019-03-16T01:07:50.768Z,8.00
2019-03-16T01:08:58.964Z,7.99
2019-03-16T01:10:09.771Z,7.96
2019-03-16T01:11:17.770Z,8.03
2019-03-16T01:12:26.021Z,8.00
2019-03-16T01:13:34.008Z,8.01
2019-03-16T01:14:42.012Z,8.00
2019-03-16T01:15:49.992Z,8.00
2019-03-16T01:16:58.102Z,7.96
2019-03-16T01:18:06.369Z,7.97
2019-03-16T01:19:14.589Z,7.95
2019-03-16T01:20:22.591Z,7.96
2019-03-16T01:21:30.896Z,7.95
2019-03-16T01:22:39.197Z,7.96
2019-03-16T01:23:47.240Z,7.96
2019-03-16T01:24:55.650Z,7.95
2019-03-16T01:26:03.753Z,8.03
2019-03-16T01:27:11.800Z,8.05
2019-03-16T01:28:19.912Z,8.00
2019-03-16T01:29:28.027Z,7.98
2019-03-16T01:30:36.328Z,8.00
2019-03-16T01:31:44.716Z,8.02
2019-03-16T01:32:52.587Z,7.98
2019-03-16T01:34:00.772Z,7.97
2019-03-16T01:35:09.078Z,7.96
2019-03-16T01:36:17.031Z,7.96
2019-03-16T01:37:25.067Z,8.00
2019-03-16T01:38:33.279Z,7.99
2019-03-16T01:39:41.325Z,7.97
2019-03-16T01:40:49.266Z,8.04
2019-03-16T01:41:57.129Z,8.01
2019-03-16T01:43:05.156Z,7.95
2019-03-16T01:44:12.987Z,7.95
2019-03-16T01:45:21.262Z,7.97
2019-03-16T01:46:30.754Z,8.02
2019-03-16T01:47:38.890Z,8.03
2019-03-16T01:48:47.054Z,8.07
2019-03-16T01:49:55.253Z,8.07
2019-03-16T01:51:03.672Z,8.06
2019-03-16T01:52:11.447Z,8.02
2019-03-16T01:53:19.918Z,8.00
2019-03-16T01:54:28.073Z,7.97
2019-03-16T01:55:36.356Z,8.03
2019-03-16T01:56:44.200Z,8.04
2019-03-16T01:57:52.372Z,8.06
2019-03-16T01:59:00.545Z,8.06
2019-03-16T02:00:18.372Z,8.05
2019-03-16T02:01:26.315Z,8.04
2019-03-16T02:02:34.459Z,8.13
2019-03-16T02:03:42.299Z,8.21
2019-03-16T02:04:50.512Z,8.19
2019-03-16T02:05:58.646Z,8.16
2019-03-16T02:07:06.749Z,8.09
2019-03-16T02:08:14.862Z,8.09
2019-03-16T02:09:23.055Z,8.13
2019-03-16T02:10:31.036Z,8.14
2019-03-16T02:11:39.255Z,8.10
2019-03-16T02:12:47.192Z,8.15
2019-03-16T02:13:55.319Z,8.15
2019-03-16T02:15:03.183Z,8.11
2019-03-16T02:16:13.023Z,8.14
2019-03-16T02:17:21.055Z,8.17
2019-03-16T02:18:29.039Z,8.24
2019-03-16T02:19:42.830Z,8.20
2019-03-16T02:20:46.720Z,8.19
2019-03-16T02:21:54.622Z,8.14
2019-03-16T02:23:02.765Z,8.12
2019-03-16T02:24:10.814Z,8.14
2019-03-16T02:25:19.033Z,8.10
2019-03-16T02:26:27.025Z,8.10
2019-03-16T02:27:35.029Z,8.09
2019-03-16T02:28:42.935Z,8.13
2019-03-16T02:29:50.839Z,8.10
2019-03-16T02:30:58.729Z,8.11
2019-03-16T02:32:06.727Z,8.11
2019-03-16T02:33:14.805Z,8.13
2019-03-16T02:34:22.791Z,8.06
2019-03-16T02:35:31.639Z,8.11
2019-03-16T02:36:44.111Z,8.08
2019-03-16T02:37:52.017Z,8.10
2019-03-16T02:39:00.108Z,8.10
2019-03-16T02:40:11.232Z,8.10
2019-03-16T02:41:19.310Z,8.10
2019-03-16T02:42:27.284Z,8.08
2019-03-16T02:43:35.345Z,8.07
2019-03-16T02:44:43.525Z,8.06
2019-03-16T02:45:51.472Z,8.07
2019-03-16T02:46:59.391Z,8.07
2019-03-16T02:48:07.343Z,8.11
2019-03-16T02:49:15.387Z,8.14
2019-03-16T02:50:23.455Z,8.14
2019-03-16T02:51:32.391Z,8.13
2019-03-16T02:52:40.160Z,8.13
2019-03-16T02:53:48.113Z,8.10
2019-03-16T02:54:56.016Z,8.06
2019-03-16T02:56:04.030Z,8.11
2019-03-16T02:57:12.044Z,8.13
2019-03-16T02:58:19.937Z,8.14
2019-03-16T02:59:27.999Z,8.15
2019-03-16T03:00:35.893Z,8.13
2019-03-16T03:01:43.823Z,8.13
2019-03-16T03:02:51.783Z,8.15
2019-03-16T03:03:59.985Z,8.16
2019-03-16T03:05:10.735Z,8.20
2019-03-16T03:06:18.915Z,8.17
2019-03-16T03:07:27.170Z,8.16
2019-03-16T03:08:34.969Z,8.21
2019-03-16T03:09:42.998Z,8.32
2019-03-16T03:10:51.028Z,8.27
2019-03-16T03:11:59.379Z,8.23
2019-03-16T03:13:07.614Z,8.24
2019-03-16T03:14:15.427Z,8.23
2019-03-16T03:15:23.491Z,8.15
2019-03-16T03:16:31.605Z,8.17
2019-03-16T03:17:39.708Z,8.19
2019-03-16T03:18:49.932Z,8.23
2019-03-16T03:19:57.406Z,8.24
2019-03-16T03:21:05.326Z,8.23
2019-03-16T03:22:13.605Z,8.24
2019-03-16T03:23:21.585Z,8.20
2019-03-16T03:24:29.645Z,8.17
2019-03-16T03:25:37.703Z,8.19
2019-03-16T03:26:45.553Z,8.18
2019-03-16T03:27:53.727Z,8.16
2019-03-16T03:29:01.801Z,8.12
2019-03-16T03:30:14.594Z,8.13
2019-03-16T03:31:22.712Z,8.12
2019-03-16T03:32:30.952Z,8.09
2019-03-16T03:33:59.319Z,8.10
2019-03-16T03:34:49.222Z,8.10
2019-03-16T03:35:57.170Z,8.09
2019-03-16T03:37:05.479Z,8.08
2019-03-16T03:38:14.457Z,8.08
2019-03-16T03:39:22.881Z,8.07
2019-03-16T03:40:31.045Z,8.06
2019-03-16T03:41:39.507Z,8.09
2019-03-16T03:42:47.593Z,8.11
2019-03-16T03:43:55.585Z,8.11
2019-03-16T03:45:03.789Z,8.10
2019-03-16T03:46:12.575Z,8.11
2019-03-16T03:47:20.441Z,8.10
2019-03-16T03:48:28.230Z,8.12
2019-03-16T03:49:36.487Z,8.14
2019-03-16T03:50:44.645Z,8.15
2019-03-16T03:51:52.671Z,8.14
2019-03-16T03:53:01.066Z,8.13
2019-03-16T03:54:08.954Z,8.13
2019-03-16T03:55:17.386Z,8.14
2019-03-16T03:56:25.746Z,8.17
2019-03-16T03:57:33.861Z,8.17
2019-03-16T03:58:41.918Z,8.17
2019-03-16T03:59:50.159Z,8.16
2019-03-16T04:00:58.587Z,8.16
2019-03-16T04:02:06.658Z,8.15
2019-03-16T04:03:14.917Z,8.14
2019-03-16T04:04:22.889Z,8.16
2019-03-16T04:05:31.009Z,8.17
2019-03-16T04:06:41.089Z,8.14
2019-03-16T04:07:49.379Z,8.18
2019-03-16T04:08:57.391Z,8.16
2019-03-16T04:10:09.020Z,8.14
2019-03-16T04:11:17.019Z,8.14
2019-03-16T04:12:24.968Z,8.11
2019-03-16T04:13:33.087Z,8.12
2019-03-16T04:14:41.146Z,8.15
2019-03-16T04:15:49.123Z,8.12
2019-03-16T04:16:57.017Z,8.11
2019-03-16T04:18:05.035Z,8.09
2019-03-16T04:19:13.025Z,8.09
2019-03-16T04:20:21.505Z,8.07
2019-03-16T04:21:29.631Z,8.07
2019-03-16T04:22:38.817Z,8.08
2019-03-16T04:23:46.722Z,8.06
2019-03-16T04:24:54.984Z,8.06
2019-03-16T04:26:03.072Z,8.06
2019-03-16T04:27:16.249Z,8.02
2019-03-16T04:28:20.559Z,8.06
2019-03-16T04:29:28.587Z,8.08
2019-03-16T04:30:36.692Z,8.05
2019-03-16T04:31:44.858Z,8.04
2019-03-16T04:32:52.961Z,8.00
2019-03-16T04:34:00.980Z,7.99
2019-03-16T04:35:09.362Z,7.99
2019-03-16T04:36:18.020Z,7.97
2019-03-16T04:37:25.854Z,7.97
2019-03-16T04:38:34.207Z,7.99
2019-03-16T04:39:42.033Z,8.01
2019-03-16T04:40:49.901Z,8.03
2019-03-16T04:41:57.867Z,8.03
2019-03-16T04:43:05.875Z,7.90
2019-03-16T04:44:14.048Z,7.76
2019-03-16T04:45:22.047Z,7.70
2019-03-16T04:46:31.492Z,7.66
2019-03-16T04:47:39.542Z,7.64
2019-03-16T04:48:47.544Z,7.69
2019-03-16T04:49:55.723Z,7.68
2019-03-16T04:51:04.084Z,7.66
2019-03-16T04:52:12.084Z,7.59
2019-03-16T04:53:20.322Z,7.62
2019-03-16T04:54:28.620Z,7.59
2019-03-16T04:55:36.780Z,7.65
2019-03-16T04:56:44.707Z,7.62
2019-03-16T04:57:53.016Z,7.58
2019-03-16T04:59:01.153Z,7.55
2019-03-16T05:00:14.789Z,7.58
2019-03-16T05:01:23.159Z,7.56
2019-03-16T05:02:31.307Z,7.59
2019-03-16T05:03:39.271Z,7.62
2019-03-16T05:04:47.427Z,7.62
2019-03-16T05:05:55.599Z,7.63
2019-03-16T05:07:03.640Z,7.63
2019-03-16T05:08:12.075Z,7.59
2019-03-16T05:09:20.490Z,7.54
2019-03-16T05:10:28.708Z,7.56
2019-03-16T05:11:36.938Z,7.54
2019-03-16T05:12:44.778Z,7.55
2019-03-16T05:13:52.647Z,7.55
2019-03-16T05:15:00.810Z,7.56
2019-03-16T05:16:08.665Z,7.56
2019-03-16T05:17:16.599Z,7.52
2019-03-16T05:18:24.697Z,7.54
2019-03-16T05:19:32.939Z,7.54
2019-03-16T05:20:41.129Z,7.59
2019-03-16T05:21:49.132Z,7.57
2019-03-16T05:22:57.208Z,7.61
2019-03-16T05:24:05.324Z,7.63
2019-03-16T05:25:13.795Z,7.59
2019-03-16T05:26:22.018Z,7.55
2019-03-16T05:27:30.382Z,7.60
2019-03-16T05:28:38.538Z,7.64
2019-03-16T05:29:46.716Z,7.66
2019-03-16T05:30:54.931Z,7.66
2019-03-16T05:32:03.073Z,7.69
2019-03-16T05:33:11.335Z,7.62
2019-03-16T05:34:19.417Z,7.63
2019-03-16T05:35:27.827Z,7.64
2019-03-16T05:36:36.001Z,7.63
2019-03-16T05:37:44.146Z,7.64
2019-03-16T05:38:52.083Z,7.62
2019-03-16T05:40:00.725Z,7.64
2019-03-16T05:41:08.937Z,7.59
2019-03-16T05:42:17.036Z,7.64
2019-03-16T05:43:25.054Z,7.63
2019-03-16T05:44:33.319Z,7.56
2019-03-16T05:45:41.778Z,7.56
2019-03-16T05:46:49.814Z,7.55
2019-03-16T05:47:57.748Z,7.55
2019-03-16T05:49:06.202Z,7.48
2019-03-16T05:50:15.470Z,7.45
2019-03-16T05:51:24.033Z,7.46
2019-03-16T05:52:32.011Z,7.46
2019-03-16T05:53:40.249Z,7.43
2019-03-16T05:54:48.423Z,7.41
2019-03-16T05:55:56.449Z,7.34
2019-03-16T05:57:04.387Z,7.33
2019-03-16T05:58:12.829Z,7.34
2019-03-16T05:59:20.911Z,7.36
2019-03-16T06:00:29.486Z,7.36
2019-03-16T06:01:37.454Z,7.23
2019-03-16T06:02:45.734Z,7.18
2019-03-16T06:03:54.012Z,7.10
2019-03-16T06:05:10.488Z,7.10
2019-03-16T06:06:11.714Z,7.03
2019-03-16T06:07:19.934Z,6.96
2019-03-16T06:08:28.153Z,6.93
2019-03-16T06:09:36.276Z,6.87
2019-03-16T06:10:44.337Z,6.89
2019-03-16T06:11:52.463Z,6.89
2019-03-16T06:13:00.656Z,6.86
2019-03-16T06:14:08.855Z,6.88
2019-03-16T06:15:16.969Z,6.88
2019-03-16T06:16:25.697Z,6.87
2019-03-16T06:17:33.697Z,6.83
2019-03-16T06:18:41.798Z,6.86
2019-03-16T06:19:49.958Z,6.87
2019-03-16T06:20:57.938Z,6.86
2019-03-16T06:22:06.048Z,6.85
2019-03-16T06:23:14.128Z,6.94
2019-03-16T06:24:22.299Z,6.93
2019-03-16T06:25:30.356Z,6.89
2019-03-16T06:26:38.711Z,6.94
2019-03-16T06:27:47.356Z,6.91
2019-03-16T06:28:55.369Z,6.89
2019-03-16T06:30:03.538Z,7.00
2019-03-16T06:31:11.710Z,6.98
2019-03-16T06:32:20.140Z,7.02
2019-03-16T06:33:28.381Z,7.01
2019-03-16T06:34:36.642Z,6.99
2019-03-16T06:35:44.982Z,7.01
2019-03-16T06:36:53.342Z,7.06
2019-03-16T06:38:01.578Z,7.02
2019-03-16T06:39:10.086Z,7.07
2019-03-16T06:40:18.160Z,7.06
2019-03-16T06:41:26.426Z,7.13
2019-03-16T06:42:34.710Z,7.09
2019-03-16T06:43:43.097Z,7.08
2019-03-16T06:44:51.519Z,7.10
2019-03-16T06:45:59.789Z,7.17
2019-03-16T06:47:08.058Z,7.17
2019-03-16T06:48:16.568Z,7.12
2019-03-16T06:49:25.455Z,7.15
2019-03-16T06:50:33.679Z,7.18
2019-03-16T06:51:42.047Z,7.24
2019-03-16T06:52:50.250Z,7.33
2019-03-16T06:53:58.748Z,7.33
2019-03-16T06:55:08.332Z,7.32
2019-03-16T06:56:16.376Z,7.36
2019-03-16T06:57:25.035Z,7.40
2019-03-16T06:58:33.223Z,7.32
2019-03-16T06:59:41.476Z,7.34
2019-03-16T07:00:49.663Z,7.34
2019-03-16T07:01:57.797Z,7.36
2019-03-16T07:03:06.465Z,7.42
2019-03-16T07:04:15.331Z,7.38
2019-03-16T07:05:37.063Z,7.31
2019-03-16T07:06:33.461Z,7.24
2019-03-16T07:07:41.872Z,7.25
2019-03-16T07:08:49.866Z,7.17
2019-03-16T07:09:58.542Z,7.15
2019-03-16T07:11:06.911Z,7.23
2019-03-16T07:12:15.183Z,7.11
2019-03-16T07:13:23.282Z,6.99
2019-03-16T07:14:31.654Z,7.05
2019-03-16T07:15:39.801Z,7.15
2019-03-16T07:17:01.078Z,7.06
2019-03-16T07:17:57.945Z,7.18
2019-03-16T07:19:06.048Z,7.12
2019-03-16T07:20:17.255Z,7.20
2019-03-16T07:21:25.525Z,7.31
2019-03-16T07:22:34.018Z,7.18
2019-03-16T07:23:42.125Z,7.25
2019-03-16T07:24:51.699Z,7.35
2019-03-16T07:26:13.761Z,7.43
2019-03-16T07:27:10.516Z,7.48
2019-03-16T07:28:18.486Z,7.51
2019-03-16T07:29:26.521Z,7.50
2019-03-16T07:30:37.170Z,7.57
2019-03-16T07:31:49.147Z,7.61
2019-03-16T07:32:57.435Z,7.66
2019-03-16T07:34:05.693Z,7.70
2019-03-16T07:35:14.340Z,7.71
2019-03-16T07:36:23.021Z,7.74
2019-03-16T07:37:31.865Z,7.79
2019-03-16T07:38:40.301Z,7.81
2019-03-16T07:39:48.993Z,7.89
2019-03-16T07:40:57.184Z,7.90
2019-03-16T07:42:05.352Z,7.89
2019-03-16T07:43:14.396Z,7.92
2019-03-16T07:44:22.400Z,7.92
2019-03-16T07:45:30.756Z,7.86
2019-03-16T07:46:38.747Z,7.91
2019-03-16T07:47:47.064Z,7.90
2019-03-16T07:48:55.414Z,7.87
2019-03-16T07:50:04.630Z,7.73
2019-03-16T07:51:12.935Z,7.73
2019-03-16T07:52:21.119Z,7.84
2019-03-16T07:53:29.267Z,7.80
2019-03-16T07:54:37.387Z,7.82
2019-03-16T07:55:45.657Z,7.85
2019-03-16T07:56:54.737Z,7.85
2019-03-16T07:58:05.716Z,7.90
2019-03-16T07:59:13.903Z,7.90
2019-03-16T08:00:22.020Z,7.67
2019-03-16T08:01:31.483Z,7.70
2019-03-16T08:02:40.518Z,7.78
2019-03-16T08:03:48.678Z,7.81
2019-03-16T08:04:57.003Z,7.80
2019-03-16T08:06:05.404Z,7.74
2019-03-16T08:07:13.970Z,7.72
2019-03-16T08:08:22.610Z,7.75
2019-03-16T08:09:30.863Z,7.74
2019-03-16T08:10:38.983Z,7.70
2019-03-16T08:11:47.155Z,7.82
2019-03-16T08:12:54.963Z,7.77
2019-03-16T08:14:03.125Z,7.86
2019-03-16T08:15:12.891Z,7.95
2019-03-16T08:16:21.115Z,7.93
2019-03-16T08:17:29.249Z,7.98
2019-03-16T08:18:37.608Z,7.93
2019-03-16T08:19:45.983Z,7.88
2019-03-16T08:20:54.350Z,7.85
2019-03-16T08:22:02.436Z,7.88
2019-03-16T08:23:10.609Z,7.86
2019-03-16T08:24:18.462Z,7.83
2019-03-16T08:25:34.790Z,7.79
2019-03-16T08:26:36.973Z,7.87
2019-03-16T08:27:54.030Z,7.90
2019-03-16T08:28:54.899Z,7.98
2019-03-16T08:30:03.068Z,7.97
2019-03-16T08:31:11.205Z,7.95
2019-03-16T08:32:21.140Z,7.90
2019-03-16T08:33:29.219Z,7.94
2019-03-16T08:34:38.018Z,8.07
2019-03-16T08:35:46.293Z,8.06
2019-03-16T08:36:54.373Z,8.13
2019-03-16T08:38:02.406Z,8.15
2019-03-16T08:39:10.562Z,8.00
2019-03-16T08:40:18.622Z,7.98
2019-03-16T08:41:26.740Z,8.09
2019-03-16T08:42:35.522Z,8.15
2019-03-16T08:43:43.911Z,8.25
2019-03-16T08:44:52.567Z,8.23
2019-03-16T08:46:00.822Z,8.21
2019-03-16T08:47:08.937Z,8.21
2019-03-16T08:48:22.611Z,8.26
2019-03-16T08:49:26.827Z,8.32
2019-03-16T08:50:35.097Z,8.13
2019-03-16T08:51:43.054Z,8.19
2019-03-16T08:52:53.622Z,8.11
2019-03-16T08:54:02.199Z,8.13
2019-03-16T08:55:11.314Z,8.13
2019-03-16T08:56:19.371Z,8.12
2019-03-16T08:57:27.444Z,8.08
2019-03-16T08:58:35.354Z,8.12
2019-03-16T08:59:45.991Z,8.14
2019-03-16T09:01:00.611Z,8.18
2019-03-16T09:02:08.705Z,8.25
2019-03-16T09:03:16.656Z,8.23
2019-03-16T09:04:24.705Z,8.20
2019-03-16T09:05:32.552Z,8.23
2019-03-16T09:06:41.527Z,8.25
2019-03-16T09:07:50.625Z,8.18
2019-03-16T09:08:58.630Z,8.17
2019-03-16T09:10:09.580Z,8.26
2019-03-16T09:11:17.850Z,8.29
2019-03-16T09:12:26.090Z,8.38
2019-03-16T09:13:33.996Z,8.35
2019-03-16T09:14:42.692Z,8.33
2019-03-16T09:15:50.692Z,8.28
2019-03-16T09:16:58.814Z,8.34
2019-03-16T09:18:07.185Z,8.40
2019-03-16T09:19:15.693Z,8.40
2019-03-16T09:20:23.825Z,8.51
2019-03-16T09:21:31.974Z,8.53
2019-03-16T09:22:40.205Z,8.63
2019-03-16T09:23:48.405Z,8.55
2019-03-16T09:24:56.338Z,8.60
2019-03-16T09:26:04.833Z,8.66
2019-03-16T09:27:13.288Z,8.78
2019-03-16T09:28:21.916Z,8.91
2019-03-16T09:29:30.571Z,8.95
2019-03-16T09:30:39.432Z,8.94
2019-03-16T09:31:47.324Z,8.80
2019-03-16T09:32:55.467Z,8.86
2019-03-16T09:34:03.563Z,8.96
2019-03-16T09:35:11.591Z,8.79
2019-03-16T09:36:19.811Z,8.73
2019-03-16T09:37:27.913Z,8.63
2019-03-16T09:38:36.098Z,8.66
2019-03-16T09:39:44.260Z,8.68
2019-03-16T09:40:52.341Z,8.56
2019-03-16T09:42:00.566Z,8.60
2019-03-16T09:43:09.064Z,8.62
2019-03-16T09:44:17.022Z,8.62
2019-03-16T09:45:25.326Z,8.58
2019-03-16T09:46:33.431Z,8.51
2019-03-16T09:47:43.580Z,8.64
2019-03-16T09:48:52.120Z,8.67
2019-03-16T09:50:00.506Z,8.71
2019-03-16T09:51:09.066Z,8.74
2019-03-16T09:52:17.320Z,8.73
2019-03-16T09:53:25.405Z,8.82
2019-03-16T09:54:33.380Z,8.93
2019-03-16T09:55:41.574Z,8.97
2019-03-16T09:57:00.702Z,8.98
2019-03-16T09:57:59.789Z,9.05
2019-03-16T09:59:08.049Z,9.20
2019-03-16T10:00:17.737Z,9.28
2019-03-16T10:01:26.053Z,9.32
2019-03-16T10:02:34.342Z,9.28
2019-03-16T10:03:42.765Z,9.34
2019-03-16T10:04:51.054Z,9.42
2019-03-16T10:05:59.272Z,9.45
2019-03-16T10:07:06.965Z,9.49
2019-03-16T10:08:14.997Z,9.43
2019-03-16T10:09:23.106Z,9.23
2019-03-16T10:10:31.237Z,9.34
2019-03-16T10:11:39.556Z,9.28
2019-03-16T10:12:47.527Z,9.23
2019-03-16T10:13:55.726Z,9.19
2019-03-16T10:15:04.993Z,9.16
2019-03-16T10:16:13.170Z,9.25
2019-03-16T10:17:21.405Z,9.38
2019-03-16T10:18:29.441Z,9.34
2019-03-16T10:19:37.663Z,9.36
2019-03-16T10:20:45.873Z,9.50
2019-03-16T10:21:54.046Z,9.53
2019-03-16T10:23:02.362Z,9.63
2019-03-16T10:24:10.750Z,9.61
2019-03-16T10:25:19.056Z,9.62
2019-03-16T10:26:27.356Z,9.56
2019-03-16T10:27:35.601Z,9.44
2019-03-16T10:28:44.186Z,9.41
2019-03-16T10:29:52.341Z,9.44
2019-03-16T10:31:00.479Z,9.44
2019-03-16T10:32:08.754Z,9.38
2019-03-16T10:33:17.156Z,9.32
2019-03-16T10:34:25.795Z,9.28
2019-03-16T10:35:33.830Z,9.19
2019-03-16T10:36:42.056Z,9.21
2019-03-16T10:37:50.556Z,9.25
2019-03-16T10:38:58.780Z,9.36
2019-03-16T10:40:12.770Z,9.39
2019-03-16T10:41:21.028Z,9.36
2019-03-16T10:42:29.116Z,9.24
2019-03-16T10:43:37.370Z,9.26
2019-03-16T10:44:45.623Z,9.24
2019-03-16T10:45:53.689Z,9.16
2019-03-16T10:47:02.339Z,9.27
2019-03-16T10:48:10.245Z,9.38
2019-03-16T10:49:18.442Z,9.47
2019-03-16T10:50:26.809Z,9.44
2019-03-16T10:51:34.951Z,9.42
2019-03-16T10:52:42.953Z,9.40
2019-03-16T10:53:51.010Z,9.44
2019-03-16T10:54:59.260Z,9.41
2019-03-16T10:56:07.380Z,9.34
2019-03-16T10:57:15.584Z,9.44
2019-03-16T10:58:23.538Z,9.39
2019-03-16T10:59:31.880Z,9.36
2019-03-16T11:00:40.031Z,9.46
2019-03-16T11:01:48.451Z,9.63
2019-03-16T11:02:56.973Z,9.97
2019-03-16T11:04:05.119Z,10.13
2019-03-16T11:05:13.174Z,10.35
2019-03-16T11:06:21.289Z,10.49
2019-03-16T11:07:29.072Z,10.58
2019-03-16T11:08:37.055Z,10.46
2019-03-16T11:09:45.262Z,10.53
2019-03-16T11:10:53.412Z,10.74
2019-03-16T11:12:01.556Z,10.80
2019-03-16T11:13:11.038Z,10.84
2019-03-16T11:14:19.048Z,10.96
2019-03-16T11:15:27.489Z,10.88
2019-03-16T11:16:35.558Z,10.92
2019-03-16T11:17:43.676Z,10.71
2019-03-16T11:18:51.598Z,10.68
2019-03-16T11:19:59.633Z,10.67
2019-03-16T11:21:07.991Z,10.69
2019-03-16T11:22:16.176Z,10.59
2019-03-16T11:23:24.444Z,10.47
2019-03-16T11:24:32.995Z,10.57
2019-03-16T11:25:41.253Z,10.58
2019-03-16T11:26:49.605Z,10.70
2019-03-16T11:27:57.676Z,10.66
2019-03-16T11:29:09.319Z,10.58
2019-03-16T11:30:17.757Z,10.66
2019-03-16T11:31:26.224Z,10.76
2019-03-16T11:32:34.657Z,10.68
2019-03-16T11:33:43.133Z,10.61
2019-03-16T11:34:51.407Z,10.48
2019-03-16T11:35:59.916Z,10.56
2019-03-16T11:37:07.962Z,10.64
2019-03-16T11:38:16.343Z,10.72
2019-03-16T11:39:24.650Z,10.75
2019-03-16T11:40:33.236Z,10.64
2019-03-16T11:41:41.517Z,10.59
2019-03-16T11:42:50.269Z,10.54
2019-03-16T11:43:58.331Z,10.58
2019-03-16T11:45:10.483Z,10.87
2019-03-16T11:46:18.597Z,10.98
2019-03-16T11:47:26.566Z,11.04
2019-03-16T11:48:34.597Z,11.23
2019-03-16T11:49:42.783Z,11.18
2019-03-16T11:50:50.891Z,11.23
2019-03-16T11:51:59.159Z,11.51
2019-03-16T11:53:07.247Z,11.72
2019-03-16T11:54:15.509Z,11.90
2019-03-16T11:55:23.827Z,11.73
2019-03-16T11:56:31.817Z,11.80
2019-03-16T11:57:40.233Z,11.80
2019-03-16T11:58:48.433Z,11.64
2019-03-16T11:59:56.700Z,11.50
2019-03-16T12:01:05.132Z,11.36
2019-03-16T12:02:13.530Z,11.24
2019-03-16T12:03:21.588Z,11.31
2019-03-16T12:04:30.232Z,11.27
2019-03-16T12:05:38.237Z,11.31
2019-03-16T12:06:46.365Z,11.30
2019-03-16T12:07:54.545Z,11.10
2019-03-16T12:09:02.623Z,11.09
2019-03-16T12:10:15.373Z,11.12
2019-03-16T12:11:23.957Z,11.27
2019-03-16T12:12:32.064Z,11.46
2019-03-16T12:13:40.295Z,11.47
2019-03-16T12:14:48.836Z,11.57
2019-03-16T12:15:56.827Z,11.53
2019-03-16T12:17:05.492Z,11.28
2019-03-16T12:18:13.611Z,11.30
2019-03-16T12:19:22.338Z,11.39
2019-03-16T12:20:30.358Z,11.55
2019-03-16T12:21:38.348Z,11.86
2019-03-16T12:22:46.780Z,12.16
2019-03-16T12:23:55.607Z,12.27
2019-03-16T12:25:03.863Z,12.53
2019-03-16T12:26:12.207Z,12.59
2019-03-16T12:27:20.367Z,12.57
2019-03-16T12:28:28.604Z,12.79
2019-03-16T12:29:37.024Z,12.79
2019-03-16T12:30:45.267Z,12.97
2019-03-16T12:31:53.701Z,13.27
2019-03-16T12:33:02.182Z,13.47
2019-03-16T12:34:10.388Z,13.50
2019-03-16T12:35:18.391Z,13.57
2019-03-16T12:36:26.839Z,13.08
2019-03-16T12:37:34.822Z,13.04
2019-03-16T12:38:42.860Z,12.89
2019-03-16T12:39:51.065Z,13.12
2019-03-16T12:40:59.373Z,13.14
2019-03-16T12:42:07.572Z,13.02
2019-03-16T12:44:56.811Z,12.64
2019-03-16T12:46:04.922Z,12.76
2019-03-16T12:47:13.367Z,12.80
2019-03-16T12:48:21.431Z,12.49
2019-03-16T12:49:29.510Z,12.47
2019-03-16T12:50:37.829Z,12.60
2019-03-16T12:51:46.333Z,12.77
2019-03-16T12:52:55.083Z,12.93
2019-03-16T12:54:03.006Z,12.80
2019-03-16T12:55:12.413Z,12.67
2019-03-16T12:56:20.970Z,12.57
2019-03-16T12:57:28.964Z,12.32
2019-03-16T12:58:37.371Z,12.20
2019-03-16T12:59:47.156Z,12.18
2019-03-16T13:00:55.913Z,12.34
2019-03-16T13:02:04.789Z,12.34
2019-03-16T13:03:12.708Z,12.27
2019-03-16T13:04:21.128Z,12.11
2019-03-16T13:05:29.223Z,12.15
2019-03-16T13:06:37.379Z,11.96
2019-03-16T13:07:45.475Z,11.63
2019-03-16T13:08:53.605Z,11.68
2019-03-16T13:10:02.875Z,11.54
2019-03-16T13:11:10.889Z,11.34
2019-03-16T13:12:19.083Z,11.22
2019-03-16T13:13:27.368Z,11.29
2019-03-16T13:14:35.342Z,11.38
2019-03-16T13:15:43.533Z,11.33
2019-03-16T13:16:51.883Z,11.37
2019-03-16T13:18:00.431Z,11.30
2019-03-16T13:19:08.898Z,11.33
2019-03-16T13:20:18.567Z,11.42
2019-03-16T13:21:26.779Z,11.34
2019-03-16T13:22:35.333Z,11.22
2019-03-16T13:23:44.225Z,11.25
2019-03-16T13:24:52.518Z,11.29
2019-03-16T13:26:01.246Z,11.46
2019-03-16T13:27:09.718Z,11.37
2019-03-16T13:28:17.872Z,11.31
2019-03-16T13:29:27.060Z,11.44
2019-03-16T13:30:35.140Z,11.59
2019-03-16T13:31:43.083Z,11.69
2019-03-16T13:32:51.705Z,11.75
2019-03-16T13:34:00.106Z,11.80
2019-03-16T13:35:09.698Z,11.52
2019-03-16T13:36:18.225Z,11.44
2019-03-16T13:37:26.286Z,11.46
2019-03-16T13:38:34.212Z,11.39
2019-03-16T13:39:42.469Z,11.39
2019-03-16T13:40:51.148Z,11.36
2019-03-16T13:41:59.802Z,11.32
2019-03-16T13:43:08.393Z,11.42
2019-03-16T13:44:17.057Z,11.44
2019-03-16T13:45:25.306Z,11.44
2019-03-16T13:46:33.552Z,11.40
2019-03-16T13:47:42.020Z,11.44
2019-03-16T13:48:50.449Z,11.27
2019-03-16T13:49:59.686Z,11.18
2019-03-16T13:51:09.837Z,11.03
2019-03-16T13:52:18.455Z,11.12
2019-03-16T13:53:27.375Z,11.18
2019-03-16T13:54:36.318Z,11.23
2019-03-16T13:55:44.741Z,11.28
2019-03-16T13:56:53.051Z,11.27
2019-03-16T13:58:01.738Z,11.14
2019-03-16T13:59:10.039Z,11.16
2019-03-16T14:00:22.368Z,11.03
2019-03-16T14:01:31.261Z,10.94
2019-03-16T14:02:39.473Z,10.83
2019-03-16T14:03:47.369Z,10.76
2019-03-16T14:04:55.883Z,10.73
2019-03-16T14:06:04.588Z,10.81
2019-03-16T14:07:12.991Z,10.88
2019-03-16T14:08:21.602Z,10.85
2019-03-16T14:09:29.669Z,10.91
2019-03-16T14:10:38.082Z,10.93
2019-03-16T14:11:45.971Z,10.98
2019-03-16T14:12:54.399Z,10.95
2019-03-16T14:14:02.909Z,10.98
2019-03-16T14:15:11.323Z,10.91
2019-03-16T14:16:20.036Z,10.89
2019-03-16T14:17:28.478Z,10.83
2019-03-16T14:18:36.498Z,10.93
2019-03-16T14:19:44.516Z,10.85
2019-03-16T14:20:52.542Z,10.90
2019-03-16T14:22:00.757Z,10.86
2019-03-16T14:23:09.415Z,10.85
2019-03-16T14:24:17.959Z,10.87
2019-03-16T14:25:26.073Z,10.89
2019-03-16T14:26:34.256Z,10.89
2019-03-16T14:27:42.419Z,10.89
2019-03-16T14:28:50.475Z,10.87
2019-03-16T14:29:59.059Z,11.01
2019-03-16T14:31:07.714Z,11.03
2019-03-16T14:32:15.957Z,11.04
2019-03-16T14:33:24.367Z,11.15
2019-03-16T14:34:32.533Z,11.24
2019-03-16T14:35:40.630Z,11.30
2019-03-16T14:36:48.957Z,11.30
2019-03-16T14:37:56.903Z,11.35
2019-03-16T14:39:07.336Z,11.37
2019-03-16T14:40:18.558Z,11.45
2019-03-16T14:41:27.356Z,11.42
2019-03-16T14:42:37.612Z,11.51
2019-03-16T14:43:45.627Z,11.51
2019-03-16T14:44:54.467Z,11.62
2019-03-16T14:46:02.925Z,11.70
2019-03-16T14:47:11.063Z,11.80
2019-03-16T14:48:19.661Z,11.95
2019-03-16T14:49:27.927Z,11.97
2019-03-16T14:50:36.111Z,11.96
2019-03-16T14:51:44.844Z,11.80
2019-03-16T14:52:53.787Z,11.78
2019-03-16T14:54:02.556Z,11.65
2019-03-16T14:55:11.389Z,11.58
2019-03-16T14:56:19.535Z,11.62
2019-03-16T14:57:27.660Z,11.69
2019-03-16T14:58:36.198Z,11.64
2019-03-16T14:59:44.919Z,11.57
2019-03-16T15:00:53.090Z,11.43
2019-03-16T15:02:01.537Z,11.39
2019-03-16T15:03:09.853Z,11.36
2019-03-16T15:04:18.095Z,11.29